Time;durP1;ratioP1;P1;durP2;ratioP2;P2;SDS_P1;SDS_P2;PMS_P1;PMS_P2;Temp;Humidity;BMP_temperature;BMP_pressure;BME280_temperature;BME280_humidity;BME280_pressure;Samples;Min_cycle;Max_cycle;Signal;HPM_P1;HPM_P2
2023/03/12 00:01:20;;;;;;;10.57;4.13;;;;;;;1.94;59.49;100099.28;12996521;22;20054;-67
2023/03/12 00:06:22;;;;;;;12.02;5.03;;;;;;;1.95;59.41;100092.16;12987648;22;20019;-67
2023/03/12 00:11:23;;;;;;;14.32;3.97;;;;;;;1.97;59.34;100091.06;12960975;22;20411;-67
2023/03/12 00:16:25;;;;;;;8.68;3.53;;;;;;;1.95;59.15;100092.16;12984874;22;20023;-66
2023/03/12 00:21:27;;;;;;;6.78;3.10;;;;;;;1.97;59.80;100093.72;12961135;22;20448;-67
2023/03/12 00:26:28;;;;;;;9.90;4.05;;;;;;;2.08;59.27;100103.44;12998491;22;20062;-67
2023/03/12 00:31:31;;;;;;;11.35;5.25;;;;;;;2.17;59.84;100100.03;12994156;22;20023;-67
2023/03/12 00:36:33;;;;;;;11.13;5.57;;;;;;;2.27;59.39;100100.09;12967834;22;20405;-66
2023/03/12 00:41:34;;;;;;;12.45;5.85;;;;;;;2.32;59.74;100099.69;12989073;22;20023;-67
2023/03/12 00:46:36;;;;;;;14.15;5.95;;;;;;;2.39;59.78;100108.81;12989942;22;20032;-67
2023/03/12 00:51:37;;;;;;;14.68;5.55;;;;;;;2.48;60.17;100099.22;12963795;22;20349;-66
2023/03/12 00:56:39;;;;;;;11.15;4.93;;;;;;;2.57;60.06;100094.00;12987363;22;20044;-67
2023/03/12 01:01:41;;;;;;;10.52;6.03;;;;;;;2.55;59.73;100085.31;12993773;22;20073;-67
2023/03/12 01:06:43;;;;;;;11.98;5.88;;;;;;;2.62;59.60;100093.59;12965712;22;20042;-69
2023/03/12 01:11:44;;;;;;;10.23;5.20;;;;;;;2.66;59.89;100081.72;12988689;22;20054;-67
2023/03/12 01:16:46;;;;;;;12.80;6.18;;;;;;;2.69;60.16;100086.78;12986982;22;20027;-68
2023/03/12 01:21:47;;;;;;;10.52;5.60;;;;;;;2.72;60.06;100089.16;12972783;22;20024;-67
2023/03/12 01:26:49;;;;;;;15.27;5.90;;;;;;;2.74;60.08;100084.56;12969262;22;20032;-67
2023/03/12 01:31:50;;;;;;;12.93;6.90;;;;;;;2.81;60.55;100087.56;12968890;22;20085;-67
2023/03/12 01:36:52;;;;;;;14.90;6.15;;;;;;;2.85;60.06;100088.97;12973581;22;20495;-67
2023/03/12 01:41:54;;;;;;;11.93;6.03;;;;;;;2.89;60.75;100084.22;12942480;22;20103;-67
2023/03/12 01:46:55;;;;;;;15.02;6.45;;;;;;;2.87;60.73;100081.72;12981836;22;20027;-68
2023/03/12 01:52:17;;;;;;;13.77;6.05;;;;;;;2.90;60.79;100084.09;12973336;22;20031;-67
2023/03/12 01:57:23;;;;;;;16.58;6.47;;;;;;;2.96;60.18;100077.41;12968978;22;20016;-67
2023/03/12 02:02:27;;;;;;;14.18;7.40;;;;;;;3.01;59.94;100067.22;12980255;22;20082;-67
2023/03/12 02:07:29;;;;;;;13.75;5.72;;;;;;;3.01;60.26;100059.25;12968516;22;20054;-67
2023/03/12 02:12:31;;;;;;;9.48;5.45;;;;;;;3.01;60.42;100053.13;12966939;22;20083;-68
2023/03/12 02:17:32;;;;;;;21.45;6.63;;;;;;;3.03;59.82;100054.66;12968201;22;20016;-67
2023/03/12 02:22:35;;;;;;;16.08;6.45;;;;;;;3.06;60.53;100054.41;12969957;22;20099;-67
2023/03/12 02:27:38;;;;;;;10.30;6.30;;;;;;;3.05;60.35;100055.38;12968672;22;20118;-67
2023/03/12 02:32:41;;;;;;;12.52;7.22;;;;;;;3.06;60.36;100051.75;12972464;22;20027;-67
2023/03/12 02:37:51;;;;;;;14.15;7.40;;;;;;;3.06;60.05;100050.88;12944816;22;20039;-67
2023/03/12 02:42:54;;;;;;;17.33;6.85;;;;;;;3.00;60.28;100060.22;12972182;22;20023;-67
2023/03/12 02:47:55;;;;;;;12.88;6.80;;;;;;;2.96;59.98;100057.03;12970860;22;20510;-67
2023/03/12 02:52:57;;;;;;;10.60;5.90;;;;;;;3.01;59.79;100045.16;12986374;22;20403;-67
2023/03/12 02:57:58;;;;;;;17.13;6.60;;;;;;;3.06;60.16;100038.47;12972588;22;20019;-68
2023/03/12 03:03:01;;;;;;;11.00;6.47;;;;;;;3.02;59.71;100045.03;12972032;22;20055;-67
2023/03/12 03:08:03;;;;;;;14.45;5.70;;;;;;;3.02;59.95;100044.16;12946491;22;20078;-67
2023/03/12 03:13:04;;;;;;;14.27;6.35;;;;;;;3.03;60.20;100032.59;12972087;22;20023;-67
2023/03/12 03:18:06;;;;;;;11.55;6.22;;;;;;;3.06;60.28;100019.03;12975423;22;20024;-67
2023/03/12 03:23:07;;;;;;;10.65;6.03;;;;;;;3.12;59.61;100023.78;12946581;22;20024;-67
2023/03/12 03:28:08;;;;;;;10.90;5.53;;;;;;;3.15;59.97;100013.72;12971286;22;20023;-66
2023/03/12 03:33:10;;;;;;;13.40;5.97;;;;;;;3.20;59.54;100016.00;12945216;22;20036;-67
2023/03/12 03:38:11;;;;;;;13.52;6.00;;;;;;;3.24;59.57;100021.84;12972201;22;20081;-67
2023/03/12 03:43:13;;;;;;;10.55;5.93;;;;;;;3.15;60.11;100021.72;12971322;22;20095;-68
2023/03/12 03:48:14;;;;;;;11.32;5.50;;;;;;;3.16;59.90;100023.41;12971941;22;20024;-68
2023/03/12 03:53:18;;;;;;;9.65;5.57;;;;;;;3.25;59.49;100018.25;12983022;22;20054;-66
2023/03/12 03:58:19;;;;;;;10.20;5.30;;;;;;;3.30;59.34;100018.69;12943885;22;20086;-67
2023/03/12 04:03:21;;;;;;;11.32;5.53;;;;;;;3.34;59.32;100022.75;12971037;22;20384;-68
2023/03/12 04:08:22;;;;;;;12.57;5.13;;;;;;;3.34;59.47;100012.13;12944973;22;20023;-67
2023/03/12 04:13:23;;;;;;;10.48;4.90;;;;;;;3.40;59.02;100008.91;12949511;22;20757;-66
2023/03/12 04:18:25;;;;;;;7.95;5.30;;;;;;;3.42;59.51;100014.09;12992134;22;20016;-67
2023/03/12 04:23:26;;;;;;;12.13;5.65;;;;;;;3.42;59.53;100022.06;12996843;22;20028;-66
2023/03/12 04:28:28;;;;;;;9.20;5.55;;;;;;;3.41;59.00;100030.97;12994610;22;20024;-67
2023/03/12 04:33:33;;;;;;;11.95;5.05;;;;;;;3.40;59.52;100030.16;12995149;22;20019;-67
2023/03/12 04:38:34;;;;;;;9.13;5.03;;;;;;;3.49;59.13;100034.63;12993984;22;20020;-67
2023/03/12 04:43:36;;;;;;;11.02;4.95;;;;;;;3.55;59.02;100041.19;12992545;22;20053;-67
2023/03/12 04:48:37;;;;;;;9.75;5.40;;;;;;;3.61;58.72;100043.31;12990833;22;20156;-68
2023/03/12 04:53:39;;;;;;;11.35;4.80;;;;;;;3.65;59.10;100025.25;12991940;22;20054;-68
2023/03/12 04:58:40;;;;;;;9.02;5.68;;;;;;;3.68;58.87;100020.50;12994481;22;20033;-68
2023/03/12 05:03:42;;;;;;;14.07;5.05;;;;;;;3.72;58.95;100023.75;12993115;22;20450;-67
2023/03/12 05:08:43;;;;;;;11.30;4.93;;;;;;;3.76;58.81;100015.34;12993877;22;20027;-67
2023/03/12 05:13:45;;;;;;;13.07;5.70;;;;;;;3.79;59.34;100008.88;12995153;22;20019;-68
2023/03/12 05:18:47;;;;;;;11.38;5.03;;;;;;;3.77;58.97;99993.09;13003184;22;20028;-67
2023/03/12 05:23:48;;;;;;;9.30;5.40;;;;;;;3.72;58.78;99982.03;13006654;22;20073;-67
2023/03/12 05:28:50;;;;;;;9.07;5.72;;;;;;;3.74;59.49;99974.75;13015213;22;20030;-66
2023/03/12 05:33:51;;;;;;;9.57;4.93;;;;;;;3.71;59.37;99990.16;13013353;22;20028;-66
2023/03/12 05:38:53;;;;;;;9.48;5.22;;;;;;;3.79;58.94;99990.28;13012736;22;20031;-66
2023/03/12 05:43:56;;;;;;;8.40;5.13;;;;;;;3.69;59.20;99981.47;13013531;22;20085;-66
2023/03/12 05:48:57;;;;;;;8.65;4.80;;;;;;;3.71;59.18;99979.53;12974773;22;20483;-65
2023/03/12 05:53:59;;;;;;;12.63;5.43;;;;;;;3.76;59.13;99969.31;12969356;22;20419;-64
2023/03/12 05:59:01;;;;;;;11.75;5.65;;;;;;;3.80;58.67;99970.72;12967226;22;20081;-65
2023/03/12 06:04:03;;;;;;;8.82;4.57;;;;;;;3.77;58.87;99973.63;12945065;22;20024;-65
2023/03/12 06:09:05;;;;;;;7.10;3.97;;;;;;;3.84;58.67;99960.63;12984205;22;20046;-63
2023/03/12 06:14:06;;;;;;;7.95;5.18;;;;;;;3.92;58.50;99950.94;12950702;22;20027;-65
2023/03/12 06:19:12;;;;;;;9.15;4.15;;;;;;;4.00;58.90;99960.88;12978541;22;20035;-65
2023/03/12 06:24:14;;;;;;;8.40;4.82;;;;;;;3.96;58.43;99970.13;12949357;22;20538;-65
2023/03/12 06:29:15;;;;;;;8.57;4.30;;;;;;;3.95;58.10;99968.47;12976902;22;20069;-63
2023/03/12 06:34:17;;;;;;;5.72;3.65;;;;;;;3.92;58.59;99964.25;12976770;22;20050;-65
2023/03/12 06:39:18;;;;;;;8.88;4.18;;;;;;;3.95;58.58;99973.78;12975988;22;20023;-63
2023/03/12 06:44:20;;;;;;;5.53;3.95;;;;;;;3.92;58.66;99979.38;12977996;22;20031;-65
2023/03/12 06:49:22;;;;;;;7.00;4.45;;;;;;;3.96;58.57;99980.75;12975620;22;20476;-65
2023/03/12 06:54:23;;;;;;;6.03;3.63;;;;;;;4.16;57.97;99958.44;12975657;22;20019;-64
2023/03/12 06:59:25;;;;;;;11.43;4.18;;;;;;;4.26;58.06;99970.88;12985986;22;20023;-64
2023/03/12 07:04:26;;;;;;;7.30;4.55;;;;;;;4.34;57.94;99973.66;12977537;22;20024;-66
2023/03/12 07:09:28;;;;;;;6.75;3.97;;;;;;;4.39;58.19;99954.63;12980497;22;20015;-64
2023/03/12 07:14:29;;;;;;;10.70;4.45;;;;;;;4.40;58.19;99949.13;12976402;22;20058;-63
2023/03/12 07:19:31;;;;;;;8.57;4.75;;;;;;;4.46;58.49;99956.53;12948403;22;20016;-64
2023/03/12 07:24:32;;;;;;;8.20;4.40;;;;;;;4.55;58.50;99962.81;12949331;22;20024;-66
2023/03/12 07:29:34;;;;;;;10.25;4.70;;;;;;;4.64;58.66;99963.72;12977386;22;20070;-66
2023/03/12 07:34:35;;;;;;;6.18;4.50;;;;;;;4.56;59.04;99973.31;12976001;22;20027;-64
2023/03/12 07:39:37;;;;;;;8.05;4.60;;;;;;;4.53;59.32;99960.28;12974706;22;20019;-65
2023/03/12 07:44:38;;;;;;;9.00;5.05;;;;;;;4.56;59.12;99951.16;12948658;22;20024;-65
2023/03/12 07:49:40;;;;;;;7.07;3.67;;;;;;;4.62;58.98;99958.59;12974425;22;20024;-65
2023/03/12 07:54:42;;;;;;;10.32;4.90;;;;;;;4.66;58.76;99951.13;12975294;22;20036;-65
2023/03/12 07:59:43;;;;;;;5.55;3.15;;;;;;;4.44;59.54;99947.00;12971504;22;20031;-65
2023/03/12 08:04:45;;;;;;;6.95;3.35;;;;;;;4.26;59.76;99944.28;12973465;22;20062;-65
2023/03/12 08:09:48;;;;;;;8.60;3.72;;;;;;;4.24;60.00;99943.59;12974205;22;20518;-65
2023/03/12 08:14:50;;;;;;;12.05;3.78;;;;;;;4.24;60.38;99948.91;12973767;22;20077;-65
2023/03/12 08:19:51;;;;;;;9.45;4.05;;;;;;;4.18;60.56;99956.47;12970534;22;20035;-64
2023/03/12 08:24:53;;;;;;;7.13;3.90;;;;;;;4.09;61.05;99951.22;12982040;22;20028;-64
2023/03/12 08:29:54;;;;;;;7.05;4.43;;;;;;;4.06;61.39;99954.16;12981802;22;20034;-63
2023/03/12 08:34:56;;;;;;;9.70;5.65;;;;;;;3.89;62.40;99959.22;12974065;22;20452;-62
2023/03/12 08:39:58;;;;;;;12.70;5.95;;;;;;;3.92;63.05;99955.44;12972198;22;20032;-61
2023/03/12 08:45:00;;;;;;;10.65;5.15;;;;;;;3.85;62.97;99962.28;12980161;22;20471;-64
2023/03/12 08:50:01;;;;;;;16.65;5.57;;;;;;;3.87;63.17;99963.00;12973836;22;20089;-64
2023/03/12 08:55:04;;;;;;;13.32;7.18;;;;;;;3.86;63.51;99948.88;12973244;22;20024;-62
2023/03/12 09:00:10;;;;;;;19.83;7.95;;;;;;;3.82;64.22;99944.81;12972048;22;20026;-63
2023/03/12 09:05:12;;;;;;;17.20;8.65;;;;;;;3.81;64.43;99955.59;12971534;22;20020;-63
2023/03/12 09:10:13;;;;;;;14.23;8.45;;;;;;;3.77;64.92;99949.72;12972467;22;20385;-63
2023/03/12 09:15:15;;;;;;;17.00;8.95;;;;;;;3.83;65.06;99949.16;12972648;22;20419;-64
2023/03/12 09:20:17;;;;;;;17.70;9.63;;;;;;;3.81;65.34;99953.78;12943402;22;20031;-66
2023/03/12 09:25:19;;;;;;;14.82;9.43;;;;;;;3.78;65.46;99962.88;12973881;22;20093;-62
2023/03/12 09:30:23;;;;;;;18.75;10.25;;;;;;;3.84;65.77;99958.81;12968373;22;20026;-64
2023/03/12 09:35:25;;;;;;;13.90;9.10;;;;;;;3.86;65.76;99938.22;12970589;22;20411;-63
2023/03/12 09:40:30;;;;;;;20.98;10.10;;;;;;;3.86;66.32;99943.56;12971385;22;20078;-64
2023/03/12 09:45:36;;;;;;;23.38;10.93;;;;;;;3.96;66.78;99935.56;12976106;22;20019;-66
2023/03/12 09:50:42;;;;;;;21.75;9.93;;;;;;;4.01;66.28;99930.66;12959944;22;20015;-65
2023/03/12 09:55:47;;;;;;;23.35;12.13;;;;;;;3.90;67.19;99946.75;12975527;22;20129;-66
2023/03/12 10:00:53;;;;;;;20.17;11.95;;;;;;;3.85;67.92;99935.72;12972822;22;20023;-61
2023/03/12 10:06:12;;;;;;;22.35;13.05;;;;;;;3.97;67.80;99935.41;12973366;22;20035;-64
2023/03/12 10:11:42;;;;;;;24.25;11.75;;;;;;;4.08;67.57;99941.53;12975240;22;20219;-64
2023/03/12 10:16:48;;;;;;;22.13;12.05;;;;;;;4.09;67.67;99941.41;12972017;22;20327;-65
2023/03/12 10:22:13;;;;;;;29.08;14.60;;;;;;;4.12;67.93;99950.91;12949173;22;20389;-66
2023/03/12 10:27:16;;;;;;;33.70;15.98;;;;;;;4.20;67.79;99950.19;12985962;22;20026;-66
2023/03/12 10:32:39;;;;;;;37.45;16.00;;;;;;;4.32;67.60;99943.69;12976569;22;20023;-65
2023/03/12 10:43:05;;;;;;;30.67;14.20;;;;;;;4.14;68.56;99940.97;12856208;22;20020;-69
2023/03/12 10:53:43;;;;;;;40.75;18.80;;;;;;;4.18;69.08;99921.06;12941675;22;20031;-68
2023/03/12 10:58:51;;;;;;;41.33;19.00;;;;;;;4.32;69.06;99899.31;12944810;23;20266;-69
2023/03/12 11:04:08;;;;;;;36.95;16.70;;;;;;;4.36;69.63;99910.50;12926951;22;20028;-70
2023/03/12 11:09:18;;;;;;;36.38;16.45;;;;;;;4.30;70.13;99921.72;12949306;23;20692;-70
2023/03/12 11:14:23;;;;;;;44.63;17.40;;;;;;;4.42;69.79;99920.53;12957059;23;20039;-69
2023/03/12 11:19:26;;;;;;;35.35;16.95;;;;;;;4.59;69.76;99916.28;12947064;22;20926;-70
2023/03/12 11:24:29;;;;;;;39.67;19.13;;;;;;;4.73;69.78;99926.41;12884035;23;20024;-71
2023/03/12 11:29:38;;;;;;;35.95;19.08;;;;;;;4.85;69.93;99935.03;12861662;23;20059;-70
2023/03/12 11:34:40;;;;;;;37.30;17.35;;;;;;;4.96;70.23;99924.19;12925054;22;20075;-70
2023/03/12 11:45:22;;;;;;;40.60;18.27;;;;;;;5.39;70.00;99915.59;12903359;22;20092;-71
2023/03/12 11:50:36;;;;;;;;;;;;;;;5.64;69.90;99909.47;12932395;22;20020;-70
2023/03/12 11:56:00;;;;;;;23.58;12.52;;;;;;;5.79;69.60;99911.59;12944061;22;19916;-70
2023/03/12 12:27:30;;;;;;;20.38;11.15;;;;;;;6.39;69.73;99860.91;12908615;22;20060;-69
2023/03/12 12:32:54;;;;;;;21.83;12.00;;;;;;;6.71;69.36;99854.84;13025170;22;20024;-70
2023/03/12 12:38:02;;;;;;;23.73;11.57;;;;;;;6.87;68.75;99846.03;12998796;22;20027;-70
2023/03/12 12:43:28;;;;;;;18.88;11.30;;;;;;;7.20;68.25;99831.84;12939327;22;20032;-72
2023/03/12 12:48:36;;;;;;;17.42;10.65;;;;;;;7.38;68.14;99832.50;12946272;22;20011;-67
2023/03/12 12:59:24;;;;;;;20.42;10.88;;;;;;;7.62;67.72;99829.00;12895957;22;20292;-70
2023/03/12 13:04:31;;;;;;;17.40;10.82;;;;;;;7.91;67.68;99836.44;12908664;22;20364;-72
2023/03/12 13:09:38;;;;;;;17.58;10.13;;;;;;;8.13;67.07;99832.16;12917323;23;20348;-70
2023/03/12 13:14:42;;;;;;;21.00;11.30;;;;;;;8.33;66.62;99829.94;12907943;23;20032;-74
2023/03/12 13:19:46;;;;;;;15.80;11.20;;;;;;;8.64;67.01;99821.09;12904346;23;20029;-71
2023/03/12 13:25:19;;;;;;;19.92;10.90;;;;;;;8.96;66.22;99813.84;12908239;23;20027;-73
2023/03/12 13:30:32;;;;;;;16.83;10.52;;;;;;;9.21;65.82;99805.63;12903394;23;20023;-71
2023/03/12 13:35:38;;;;;;;17.50;11.07;;;;;;;9.37;65.57;99793.91;12905277;23;20031;-73
2023/03/12 13:40:59;;;;;;;13.90;9.80;;;;;;;9.51;65.26;99788.56;12903354;23;20024;-73
2023/03/12 13:46:06;;;;;;;16.83;9.90;;;;;;;9.50;65.48;99811.06;12908686;23;20032;-73
2023/03/12 13:51:16;;;;;;;19.13;10.90;;;;;;;9.53;65.53;99809.84;12911918;23;20016;-73
2023/03/12 13:56:20;;;;;;;11.45;6.45;;;;;;;9.43;65.45;99822.69;12905274;23;20020;-66
2023/03/12 14:01:26;;;;;;;17.45;10.70;;;;;;;9.41;65.39;99804.09;12904081;23;20531;-64
2023/03/12 14:06:32;;;;;;;17.23;11.82;;;;;;;9.40;65.63;99810.50;12905496;22;20031;-67
2023/03/12 14:11:58;;;;;;;16.30;11.18;;;;;;;9.52;65.26;99794.78;12905722;23;20181;-68
2023/03/12 14:17:02;;;;;;;17.25;11.00;;;;;;;9.51;65.39;99783.19;12902053;23;20093;-70
2023/03/12 14:22:06;;;;;;;13.93;10.02;;;;;;;9.60;65.39;99783.13;12973121;22;20435;-69
2023/03/12 14:27:16;;;;;;;18.27;11.43;;;;;;;9.58;65.40;99788.69;12971330;22;20089;-70
2023/03/12 14:32:21;;;;;;;17.23;11.20;;;;;;;9.63;65.10;99786.25;12985081;22;20032;-70
2023/03/12 14:37:27;;;;;;;15.75;10.13;;;;;;;9.73;64.84;99784.16;12973022;22;20027;-71
2023/03/12 14:42:31;;;;;;;20.55;10.93;;;;;;;9.75;64.95;99770.53;12945327;22;20407;-70
2023/03/12 14:47:47;;;;;;;18.17;12.27;;;;;;;9.90;64.56;99774.06;12983218;22;20039;-71
2023/03/12 14:52:49;;;;;;;18.33;11.48;;;;;;;9.98;64.54;99775.81;12973373;22;20024;-70
2023/03/12 14:58:04;;;;;;;19.92;11.70;;;;;;;10.02;64.90;99771.72;12920826;22;20333;-70
2023/03/12 15:03:13;;;;;;;17.83;10.52;;;;;;;10.12;64.51;99772.28;12972144;22;20538;-70
2023/03/12 15:08:16;;;;;;;18.10;10.65;;;;;;;10.22;64.36;99768.47;12972806;22;20077;-70
2023/03/12 15:13:20;;;;;;;20.58;12.02;;;;;;;10.23;64.46;99768.28;12973191;22;20027;-68
2023/03/12 15:18:25;;;;;;;18.48;11.48;;;;;;;10.32;64.57;99756.44;12967648;22;20081;-71
2023/03/12 15:23:30;;;;;;;25.13;13.10;;;;;;;10.40;64.65;99739.34;12973954;22;20020;-70
2023/03/12 15:28:32;;;;;;;15.35;10.15;;;;;;;10.59;64.09;99756.72;12972466;22;20027;-70
2023/03/12 15:33:33;;;;;;;18.23;10.02;;;;;;;10.60;64.24;99752.19;12972644;22;20027;-72
2023/03/12 15:38:37;;;;;;;18.48;11.30;;;;;;;10.64;64.61;99748.09;12981637;22;20035;-71
2023/03/12 15:43:43;;;;;;;16.70;10.95;;;;;;;10.68;64.32;99738.63;12972117;22;20478;-70
2023/03/12 15:48:51;;;;;;;15.50;10.68;;;;;;;10.90;63.95;99753.72;12972176;22;20024;-70
2023/03/12 15:54:23;;;;;;;18.83;11.65;;;;;;;10.91;63.66;99744.63;12971703;22;20028;-70
2023/03/12 15:59:26;;;;;;;17.27;10.88;;;;;;;10.96;63.80;99733.31;12972749;22;20020;-71
2023/03/12 16:04:28;;;;;;;19.55;11.45;;;;;;;11.07;63.61;99722.00;12973664;22;20028;-71
2023/03/12 16:09:32;;;;;;;21.05;13.15;;;;;;;11.12;63.65;99729.50;12977086;22;20027;-72
2023/03/12 16:14:35;;;;;;;16.15;11.48;;;;;;;11.18;63.73;99735.97;12969896;22;20504;-70
2023/03/12 16:19:36;;;;;;;17.02;12.07;;;;;;;11.17;63.70;99737.81;12970310;22;20024;-71
2023/03/12 16:24:37;;;;;;;17.02;11.85;;;;;;;11.23;63.66;99742.41;12969573;22;20074;-71
2023/03/12 16:29:39;;;;;;;18.23;12.88;;;;;;;11.24;63.68;99737.88;12971547;22;20077;-71
2023/03/12 16:34:42;;;;;;;20.83;12.27;;;;;;;11.24;63.37;99745.94;12970895;22;20089;-71
2023/03/12 16:39:45;;;;;;;19.13;12.35;;;;;;;11.24;63.69;99754.03;12968769;22;20016;-71
2023/03/12 16:44:47;;;;;;;21.58;12.18;;;;;;;11.29;63.36;99762.31;12979657;22;20085;-72
2023/03/12 16:49:48;;;;;;;32.85;14.93;;;;;;;11.30;63.25;99747.84;12970121;22;20026;-73
2023/03/12 16:54:50;;;;;;;22.05;14.10;;;;;;;11.26;63.24;99747.41;12966097;22;20081;-69
2023/03/12 16:59:52;;;;;;;21.15;14.80;;;;;;;11.16;63.99;99751.44;12915098;22;20031;-69
2023/03/12 17:04:54;;;;;;;19.77;13.95;;;;;;;11.15;63.96;99747.94;12893831;23;20024;-72
2023/03/12 17:09:55;;;;;;;20.42;13.07;;;;;;;11.09;64.05;99754.91;12892678;23;20019;-72
2023/03/12 17:14:59;;;;;;;20.73;13.20;;;;;;;11.11;63.96;99770.88;12894966;23;20031;-71
2023/03/12 17:20:00;;;;;;;22.30;13.40;;;;;;;11.08;64.08;99764.03;12907818;22;20031;-71
2023/03/12 17:25:03;;;;;;;21.58;12.93;;;;;;;11.08;63.85;99782.84;12903744;23;20032;-74
2023/03/12 17:30:04;;;;;;;25.42;16.67;;;;;;;11.03;64.20;99789.84;12912186;23;20016;-75
2023/03/12 17:35:06;;;;;;;23.65;14.77;;;;;;;11.05;64.40;99783.22;12946669;22;20054;-73
2023/03/12 17:40:09;;;;;;;24.15;14.23;;;;;;;11.04;63.80;99792.34;12943084;22;20472;-69
2023/03/12 17:45:11;;;;;;;22.63;13.85;;;;;;;11.07;64.11;99800.00;12943913;22;20407;-71
2023/03/12 17:50:13;;;;;;;21.85;13.95;;;;;;;11.07;63.96;99791.94;12939828;22;20020;-70
2023/03/12 17:55:15;;;;;;;20.85;13.77;;;;;;;11.02;64.17;99809.66;12944507;22;20024;-69
2023/03/12 18:00:17;;;;;;;17.77;12.27;;;;;;;11.01;63.87;99822.28;12939642;22;20069;-69
2023/03/12 18:05:23;;;;;;;21.35;12.93;;;;;;;11.00;64.35;99815.25;12939264;22;20034;-67
2023/03/12 18:10:24;;;;;;;22.73;13.00;;;;;;;10.94;64.62;99821.41;12940135;22;20361;-70
2023/03/12 18:15:26;;;;;;;24.85;14.52;;;;;;;10.89;64.72;99816.59;12940573;22;20645;-70
2023/03/12 18:20:28;;;;;;;25.85;14.98;;;;;;;10.89;64.49;99830.03;12916000;22;20023;-67
2023/03/12 18:25:40;;;;;;;21.23;13.30;;;;;;;10.86;64.83;99826.88;12939556;22;20075;-67
2023/03/12 18:30:46;;;;;;;20.23;12.30;;;;;;;10.86;64.92;99816.13;12939844;22;20050;-69
2023/03/12 18:35:47;;;;;;;21.65;11.82;;;;;;;10.87;65.04;99820.50;12917172;22;20035;-69
2023/03/12 18:40:50;;;;;;;19.23;10.57;;;;;;;10.94;65.31;99826.78;12972973;22;20015;-68
2023/03/12 18:45:51;;;;;;;20.08;10.02;;;;;;;10.99;64.90;99824.34;12945915;22;20026;-70
2023/03/12 18:50:53;;;;;;;21.95;9.82;;;;;;;10.98;65.36;99825.38;12919216;22;20026;-72
2023/03/12 18:55:56;;;;;;;19.75;9.65;;;;;;;11.02;65.66;99817.75;12988132;22;20051;-69
2023/03/12 19:00:58;;;;;;;21.92;10.18;;;;;;;11.08;65.06;99833.97;12948565;22;20413;-73
2023/03/12 19:06:05;;;;;;;20.75;9.23;;;;;;;11.02;65.38;99840.09;12973396;22;20027;-71
2023/03/12 19:11:09;;;;;;;18.67;7.40;;;;;;;11.03;65.03;99844.44;12946665;22;20647;-72
2023/03/12 19:16:11;;;;;;;17.35;6.35;;;;;;;10.99;65.36;99842.34;12936469;22;20035;-73
2023/03/12 19:21:14;;;;;;;17.10;4.00;;;;;;;11.10;65.11;99842.66;12976917;22;20085;-73
2023/03/12 19:26:16;;;;;;;17.45;4.50;;;;;;;11.22;64.32;99840.28;12978295;22;20031;-76
2023/03/12 19:31:19;;;;;;;19.33;7.82;;;;;;;11.35;64.00;99846.81;12907705;22;20032;-73
2023/03/12 19:36:26;;;;;;;18.65;5.20;;;;;;;11.46;63.77;99828.28;12956418;22;20027;-74
2023/03/12 19:41:28;;;;;;;18.92;5.15;;;;;;;11.57;62.89;99832.31;12976570;22;20524;-73
2023/03/12 19:46:30;;;;;;;23.55;5.78;;;;;;;11.61;62.85;99830.03;12923990;22;20024;-67
2023/03/12 19:51:34;;;;;;;21.08;6.38;;;;;;;11.59;62.57;99822.19;12980880;22;20064;-73
2023/03/12 19:56:37;;;;;;;21.45;6.30;;;;;;;11.50;62.86;99818.78;12948630;22;20047;-73
2023/03/12 20:01:39;;;;;;;20.75;5.80;;;;;;;11.50;62.68;99834.13;12950060;22;20031;-73
2023/03/12 20:06:41;;;;;;;18.63;4.90;;;;;;;11.47;62.69;99829.97;12948181;22;20030;-78
2023/03/12 20:11:42;;;;;;;14.88;4.45;;;;;;;11.45;62.73;99825.78;12948112;22;20475;-77
2023/03/12 20:16:44;;;;;;;15.23;4.32;;;;;;;11.50;62.36;99828.72;12970526;22;20110;-79
2023/03/12 20:21:47;;;;;;;18.13;5.25;;;;;;;11.58;62.22;99809.75;12949233;22;20078;-81
2023/03/12 20:26:48;;;;;;;31.30;6.65;;;;;;;11.63;61.88;99811.84;12945907;22;20035;-77
2023/03/12 20:31:50;;;;;;;23.17;5.60;;;;;;;11.58;62.08;99801.66;12943901;22;20077;-77
2023/03/12 20:36:51;;;;;;;19.33;4.28;;;;;;;11.62;62.24;99794.84;12969855;22;20392;-75
2023/03/12 20:41:53;;;;;;;10.95;2.70;;;;;;;11.65;61.95;99801.69;12941358;22;20102;-77
2023/03/12 20:46:56;;;;;;;16.70;3.58;;;;;;;11.56;62.55;99801.03;12961219;22;20024;-78
2023/03/12 20:51:58;;;;;;;20.55;4.57;;;;;;;11.52;62.41;99808.66;12952923;22;20038;-78
2023/03/12 20:57:00;;;;;;;18.80;3.85;;;;;;;11.52;62.28;99792.50;12923974;22;20032;-78
2023/03/12 21:02:03;;;;;;;22.13;4.25;;;;;;;11.56;61.97;99794.81;12924436;22;20547;-81
2023/03/12 21:07:04;;;;;;;19.10;4.38;;;;;;;11.61;61.85;99786.97;12951716;22;20360;-75
2023/03/12 21:12:06;;;;;;;16.83;3.28;;;;;;;11.62;61.79;99784.09;12931854;22;20024;-77
2023/03/12 21:17:12;;;;;;;16.98;4.45;;;;;;;11.60;61.41;99791.53;12885846;22;20024;-80
2023/03/12 21:22:14;;;;;;;10.77;3.65;;;;;;;11.57;61.65;99783.88;12922066;22;20034;-77
2023/03/12 21:27:15;;;;;;;17.80;3.70;;;;;;;11.57;61.33;99781.19;12920920;22;20094;-77
2023/03/12 21:32:18;;;;;;;21.05;4.55;;;;;;;11.40;62.18;99779.81;12922598;22;20102;-80
2023/03/12 21:37:19;;;;;;;16.50;4.57;;;;;;;11.37;61.79;99777.50;12922201;22;20028;-73
2023/03/12 21:42:21;;;;;;;19.70;4.35;;;;;;;11.29;61.86;99773.94;12954905;22;20036;-80
2023/03/12 21:47:22;;;;;;;18.65;5.80;;;;;;;11.19;62.01;99759.13;12947346;22;20024;-77
2023/03/12 21:52:23;;;;;;;18.67;4.22;;;;;;;11.06;61.96;99759.88;12945683;22;20027;-68
2023/03/12 21:57:26;;;;;;;19.80;5.35;;;;;;;10.90;62.75;99755.59;12916921;22;20023;-67
2023/03/12 22:02:28;;;;;;;15.95;3.50;;;;;;;10.79;62.76;99751.56;12917229;22;20077;-67
2023/03/12 22:07:29;;;;;;;17.75;3.22;;;;;;;10.76;62.69;99745.72;12970211;22;20395;-68
2023/03/12 22:12:31;;;;;;;15.95;2.75;;;;;;;10.78;62.94;99736.47;12942407;22;20395;-69
2023/03/12 22:17:32;;;;;;;14.68;4.05;;;;;;;10.79;62.96;99730.03;12978090;22;20031;-68
2023/03/12 22:22:34;;;;;;;18.58;2.30;;;;;;;10.73;63.24;99722.75;12970103;22;20028;-68
2023/03/12 22:27:35;;;;;;;15.40;3.15;;;;;;;10.74;63.41;99721.72;12975537;22;20020;-69
2023/03/12 22:32:37;;;;;;;20.17;2.90;;;;;;;10.83;63.45;99725.94;12972110;22;20034;-68
2023/03/12 22:37:38;;;;;;;21.27;2.95;;;;;;;10.87;63.00;99715.63;12943242;22;20062;-69
2023/03/12 22:42:41;;;;;;;12.43;3.05;;;;;;;10.84;62.97;99705.25;12942875;22;20407;-68
2023/03/12 22:47:42;;;;;;;12.02;3.20;;;;;;;10.75;63.01;99701.88;12971793;22;20028;-68
2023/03/12 22:52:44;;;;;;;15.80;3.00;;;;;;;10.66;62.95;99698.50;12971298;22;20031;-68
2023/03/12 22:57:45;;;;;;;17.67;2.90;;;;;;;10.65;63.36;99694.16;12976680;22;20028;-68
2023/03/12 23:02:47;;;;;;;12.95;3.38;;;;;;;10.60;63.44;99687.69;12947444;22;20023;-68
2023/03/12 23:07:48;;;;;;;13.45;2.58;;;;;;;10.57;63.48;99680.03;12945946;22;20031;-68
2023/03/12 23:12:50;;;;;;;18.65;3.75;;;;;;;10.56;63.77;99686.41;12975919;22;20105;-68
2023/03/12 23:17:51;;;;;;;20.23;3.28;;;;;;;10.58;63.42;99687.88;12971954;22;20320;-69
2023/03/12 23:22:53;;;;;;;12.13;3.65;;;;;;;10.56;63.62;99667.59;12971918;22;20027;-67
2023/03/12 23:27:54;;;;;;;19.33;4.22;;;;;;;10.51;63.70;99670.88;12973246;22;20058;-67
2023/03/12 23:32:55;;;;;;;15.98;4.82;;;;;;;10.41;63.79;99663.13;12973146;22;20020;-68
2023/03/12 23:37:58;;;;;;;17.10;3.88;;;;;;;10.30;64.21;99664.44;12972052;22;20019;-68
2023/03/12 23:42:59;;;;;;;14.70;3.75;;;;;;;10.29;64.35;99664.63;12973296;22;20023;-67
2023/03/12 23:48:00;;;;;;;16.90;4.10;;;;;;;10.35;64.11;99661.22;12971884;22;20019;-68
2023/03/12 23:53:02;;;;;;;19.60;3.70;;;;;;;10.28;64.44;99646.84;12972950;22;20085;-68
2023/03/12 23:58:03;;;;;;;18.00;4.00;;;;;;;10.29;64.24;99641.28;12968450;22;20023;-67
